createdAt,value
2023-02-08T03:40:43.228Z,10.00
2023-02-08T03:43:26.426Z,12.85
2023-02-08T03:48:29.470Z,10.75
2023-02-08T03:50:58.375Z,10.13
2023-02-08T03:53:27.309Z,13.30
2023-02-08T03:56:00.409Z,13.80
2023-02-08T03:58:34.445Z,10.30
2023-02-08T04:01:12.417Z,13.65
2023-02-08T04:03:40.543Z,11.35
2023-02-08T04:06:07.310Z,11.60
2023-02-08T04:08:33.940Z,9.85
2023-02-08T04:11:00.527Z,11.10
2023-02-08T04:13:27.104Z,10.18
2023-02-08T04:15:53.814Z,11.23
2023-02-08T04:18:20.402Z,11.85
2023-02-08T04:20:46.960Z,12.43
2023-02-08T04:23:13.466Z,14.48
2023-02-08T04:25:40.061Z,12.23
2023-02-08T04:28:06.625Z,10.50
2023-02-08T04:30:33.326Z,18.20
2023-02-08T04:33:00.209Z,11.60
2023-02-08T04:35:26.843Z,12.45
2023-02-08T04:37:53.404Z,17.13
2023-02-08T04:40:20.157Z,11.50
2023-02-08T04:42:46.706Z,12.48
2023-02-08T04:45:13.292Z,11.35
2023-02-08T04:47:39.818Z,11.45
2023-02-08T04:50:06.725Z,12.88
2023-02-08T04:52:33.319Z,13.45
2023-02-08T04:55:00.018Z,14.57
2023-02-08T04:57:26.634Z,13.70
2023-02-08T04:59:53.202Z,11.52
2023-02-08T05:02:20.117Z,12.05
2023-02-08T05:04:46.660Z,12.68
2023-02-08T05:07:13.229Z,11.63
2023-02-08T05:09:39.828Z,13.52
2023-02-08T05:12:06.507Z,11.52
2023-02-08T05:14:33.143Z,11.30
2023-02-08T05:16:59.752Z,12.23
2023-02-08T05:19:27.004Z,13.85
2023-02-08T05:21:53.564Z,11.38
2023-02-08T05:24:20.184Z,12.82
2023-02-08T05:26:46.741Z,14.15
2023-02-08T05:29:13.425Z,11.95
2023-02-08T05:31:40.132Z,10.95
2023-02-08T05:34:06.836Z,14.10
2023-02-08T05:36:33.595Z,14.23
2023-02-08T05:39:00.196Z,11.35
2023-02-08T05:41:26.868Z,9.68
2023-02-08T05:43:53.437Z,11.93
2023-02-08T05:46:20.126Z,11.43
2023-02-08T05:48:46.958Z,11.00
2023-02-08T05:51:13.553Z,10.98
2023-02-08T05:53:40.154Z,10.30
2023-02-08T05:56:07.071Z,10.45
2023-02-08T05:58:34.260Z,11.02
2023-02-08T06:01:00.983Z,12.77
2023-02-08T06:03:27.652Z,8.88
2023-02-08T06:05:54.275Z,9.35
2023-02-08T06:08:20.789Z,9.77
2023-02-08T06:10:57.176Z,11.27
2023-02-08T06:16:09.892Z,7.93
2023-02-08T06:18:36.558Z,8.80
2023-02-08T06:21:03.279Z,8.90
2023-02-08T06:23:30.335Z,7.95
2023-02-08T06:25:57.113Z,10.90
2023-02-08T06:28:23.631Z,9.32
2023-02-08T06:30:51.323Z,9.98
2023-02-08T06:33:18.892Z,8.18
2023-02-08T06:35:51.632Z,8.48
2023-02-08T06:38:18.563Z,9.90
2023-02-08T06:40:47.467Z,9.13
2023-02-08T06:43:14.378Z,9.38
2023-02-08T06:45:42.769Z,10.07
2023-02-08T06:48:09.377Z,9.73
2023-02-08T06:50:37.909Z,9.68
2023-02-08T06:53:04.723Z,8.88
2023-02-08T06:55:31.399Z,10.05
2023-02-08T06:57:57.988Z,10.32
2023-02-08T07:00:24.784Z,10.50
2023-02-08T07:02:52.562Z,10.68
2023-02-08T07:05:19.316Z,10.07
2023-02-08T07:07:45.912Z,9.15
2023-02-08T07:10:12.522Z,9.13
2023-02-08T07:12:39.083Z,10.98
2023-02-08T07:15:05.882Z,9.18
2023-02-08T07:17:32.602Z,10.63
2023-02-08T07:19:59.239Z,11.00
2023-02-08T07:22:25.695Z,10.40
2023-02-08T07:24:52.265Z,6.78
2023-02-08T07:27:18.911Z,9.05
2023-02-08T07:29:45.556Z,8.32
2023-02-08T07:32:12.288Z,13.93
2023-02-08T07:34:40.796Z,7.30
2023-02-08T07:37:08.272Z,7.75
2023-02-08T07:39:34.912Z,7.60
2023-02-08T07:42:01.500Z,7.30
2023-02-08T07:44:28.099Z,9.60
2023-02-08T07:46:55.001Z,10.88
2023-02-08T07:49:21.924Z,9.68
2023-02-08T07:51:48.506Z,9.80
2023-02-08T07:54:15.164Z,10.02
2023-02-08T07:56:41.857Z,8.73
2023-02-08T07:59:08.933Z,8.50
2023-02-08T08:01:35.627Z,9.35
2023-02-08T08:04:02.327Z,10.23
2023-02-08T08:06:28.919Z,9.32
2023-02-08T08:08:55.593Z,7.55
2023-02-08T08:11:22.334Z,7.43
2023-02-08T08:13:49.475Z,9.30
2023-02-08T08:16:16.689Z,7.97
2023-02-08T08:18:43.591Z,7.68
2023-02-08T08:21:10.741Z,7.25
2023-02-08T08:23:37.648Z,7.03
2023-02-08T08:26:08.601Z,8.02
2023-02-08T08:28:35.932Z,6.60
2023-02-08T08:31:02.775Z,7.70
2023-02-08T08:33:29.384Z,8.52
2023-02-08T08:35:55.960Z,8.05
2023-02-08T08:38:22.620Z,7.95
2023-02-08T08:40:49.223Z,7.32
2023-02-08T08:45:43.682Z,6.88
2023-02-08T08:48:10.710Z,7.57
2023-02-08T08:50:37.285Z,9.20
2023-02-08T08:53:03.777Z,7.50
2023-02-08T08:55:30.345Z,9.50
2023-02-08T08:57:56.836Z,8.15
2023-02-08T09:00:23.387Z,7.15
2023-02-08T09:02:49.895Z,9.07
2023-02-08T09:05:16.431Z,8.25
2023-02-08T09:07:42.947Z,7.03
2023-02-08T09:10:09.574Z,8.20
2023-02-08T09:12:36.516Z,6.32
2023-02-08T09:15:03.783Z,7.60
2023-02-08T09:17:30.284Z,7.50
2023-02-08T09:19:56.747Z,9.85
2023-02-08T09:22:23.306Z,7.55
2023-02-08T09:24:49.892Z,7.22
2023-02-08T09:27:18.876Z,7.38
2023-02-08T09:29:45.359Z,6.68
2023-02-08T09:32:11.874Z,6.68
2023-02-08T09:34:38.527Z,7.75
2023-02-08T09:37:06.680Z,7.75
2023-02-08T09:39:33.186Z,8.50
2023-02-08T09:42:21.216Z,10.00
2023-02-08T09:44:59.763Z,6.55
2023-02-08T09:47:35.898Z,9.93
2023-02-08T09:50:11.650Z,5.57
2023-02-08T09:52:50.533Z,13.13
2023-02-08T09:55:16.930Z,9.98
2023-02-08T09:57:45.707Z,6.32
2023-02-08T10:00:25.508Z,7.53
2023-02-08T10:02:54.857Z,7.53
2023-02-08T10:05:29.852Z,7.32
2023-02-08T10:07:58.482Z,8.75
2023-02-08T10:10:46.716Z,9.48
2023-02-08T10:13:41.382Z,7.93
2023-02-08T10:16:14.251Z,11.18
2023-02-08T10:19:10.944Z,11.40
2023-02-08T10:21:43.336Z,10.43
2023-02-08T10:24:37.811Z,12.50
2023-02-08T10:27:17.213Z,8.68
2023-02-08T10:29:52.629Z,6.85
2023-02-08T10:32:25.189Z,8.95
2023-02-08T10:35:00.012Z,7.50
2023-02-08T10:37:36.627Z,8.90
2023-02-08T10:40:18.474Z,7.35
2023-02-08T10:42:49.422Z,9.02
2023-02-08T10:45:30.110Z,7.88
2023-02-08T10:48:00.811Z,7.40
2023-02-08T10:50:39.083Z,8.07
2023-02-08T10:53:06.294Z,8.38
2023-02-08T10:55:38.293Z,6.40
2023-02-08T10:58:06.293Z,7.00
2023-02-08T11:00:36.737Z,6.38
2023-02-08T11:03:20.508Z,7.00
2023-02-08T11:05:47.365Z,6.53
2023-02-08T11:08:22.859Z,7.25
2023-02-08T11:11:04.801Z,6.20
2023-02-08T11:13:43.325Z,5.35
2023-02-08T11:16:13.116Z,5.85
2023-02-08T11:18:46.834Z,6.28
2023-02-08T11:21:24.134Z,6.43
2023-02-08T11:23:55.460Z,6.28
2023-02-08T11:26:30.846Z,6.82
2023-02-08T11:29:18.061Z,6.38
2023-02-08T11:32:25.074Z,6.43
2023-02-08T11:34:51.465Z,6.18
2023-02-08T11:37:23.326Z,7.18
2023-02-08T11:39:54.336Z,6.60
2023-02-08T11:42:41.926Z,7.07
2023-02-08T11:45:19.203Z,6.90
2023-02-08T11:47:48.159Z,6.65
2023-02-08T11:50:25.383Z,4.97
2023-02-08T11:52:57.752Z,4.55
2023-02-08T11:55:27.212Z,4.95
2023-02-08T11:57:58.488Z,4.82
2023-02-08T12:00:28.155Z,5.40
2023-02-08T12:03:00.840Z,4.95
2023-02-08T12:05:44.876Z,4.53
2023-02-08T12:08:30.406Z,4.85
2023-02-08T12:11:11.785Z,5.85
2023-02-08T12:14:00.170Z,3.50
2023-02-08T12:16:36.686Z,6.22
2023-02-08T12:19:41.585Z,3.28
2023-02-08T12:22:16.813Z,3.28
2023-02-08T12:25:21.806Z,3.42
2023-02-08T12:28:01.584Z,3.60
2023-02-08T12:30:34.225Z,3.25
2023-02-08T12:35:57.643Z,2.83
2023-02-08T12:39:26.665Z,2.88
2023-02-08T12:44:34.135Z,6.28
2023-02-08T12:47:28.535Z,2.00
2023-02-08T12:50:01.121Z,2.20
2023-02-08T12:55:06.387Z,1.95
2023-02-08T13:00:05.640Z,1.75
2023-02-08T13:02:46.168Z,2.10
2023-02-08T13:05:21.613Z,1.80
2023-02-08T13:07:51.504Z,2.28
2023-02-08T13:10:31.735Z,2.00
2023-02-08T13:13:19.241Z,1.80
2023-02-08T13:15:49.000Z,2.17
2023-02-08T13:18:30.964Z,1.60
2023-02-08T13:21:01.996Z,1.52
2023-02-08T13:23:50.568Z,2.80
2023-02-08T13:26:27.535Z,2.53
2023-02-08T13:28:57.563Z,1.90
2023-02-08T13:31:31.429Z,3.30
2023-02-08T13:34:03.700Z,2.50
2023-02-08T13:36:37.146Z,4.75
2023-02-08T13:39:07.519Z,1.90
2023-02-08T13:41:35.979Z,2.60
2023-02-08T13:44:07.385Z,3.78
2023-02-08T13:46:49.023Z,3.20
2023-02-08T13:49:40.764Z,2.20
2023-02-08T13:52:45.276Z,2.15
2023-02-08T13:55:28.871Z,4.63
2023-02-08T13:57:57.626Z,1.80
2023-02-08T14:00:24.120Z,2.70
2023-02-08T14:03:15.146Z,2.05
2023-02-08T14:06:01.440Z,2.63
2023-02-08T14:08:40.174Z,2.78
2023-02-08T14:11:26.981Z,2.47
2023-02-08T14:14:15.754Z,2.75
2023-02-08T14:17:06.889Z,2.65
2023-02-08T14:19:42.499Z,3.08
2023-02-08T14:22:12.971Z,3.80
2023-02-08T14:24:48.011Z,6.72
2023-02-08T14:27:30.996Z,4.00
2023-02-08T14:29:59.671Z,3.25
2023-02-08T14:32:30.076Z,2.70
2023-02-08T14:35:07.294Z,3.53
2023-02-08T14:37:35.851Z,2.10
2023-02-08T14:40:23.602Z,2.70
2023-02-08T14:43:06.471Z,3.53
2023-02-08T14:48:10.126Z,3.90
2023-02-08T14:50:41.397Z,2.85
2023-02-08T14:53:13.730Z,4.25
2023-02-08T14:55:59.717Z,3.63
2023-02-08T14:58:30.064Z,2.53
2023-02-08T15:00:59.966Z,2.90
2023-02-08T15:03:30.139Z,2.78
2023-02-08T15:06:35.051Z,2.20
2023-02-08T15:09:02.072Z,2.47
2023-02-08T15:11:32.261Z,2.25
2023-02-08T15:14:01.440Z,1.95
2023-02-08T15:16:43.756Z,2.20
2023-02-08T15:19:38.691Z,3.83
2023-02-08T15:22:18.444Z,2.05
2023-02-08T15:24:53.325Z,3.42
2023-02-08T15:27:24.823Z,3.42
2023-02-08T15:29:51.569Z,3.13
2023-02-08T15:32:24.579Z,4.95
2023-02-08T15:37:20.973Z,4.80
2023-02-08T15:39:53.307Z,6.03
2023-02-08T15:42:25.851Z,7.43
2023-02-08T15:44:53.040Z,6.60
2023-02-08T15:47:29.912Z,7.35
2023-02-08T15:49:57.784Z,8.65
2023-02-08T15:52:28.416Z,9.15
2023-02-08T15:54:55.216Z,8.75
2023-02-08T15:57:45.649Z,8.93
2023-02-08T16:00:29.951Z,9.55
2023-02-08T16:03:05.710Z,11.00
2023-02-08T16:05:33.386Z,9.40
2023-02-08T16:08:00.871Z,14.23
2023-02-08T16:10:44.018Z,10.80
2023-02-08T16:16:03.755Z,9.25
2023-02-08T16:18:46.274Z,7.57
2023-02-08T16:21:19.702Z,8.85
2023-02-08T16:23:52.000Z,8.48
2023-02-08T16:26:23.783Z,9.82
2023-02-08T16:29:02.521Z,10.00
2023-02-08T16:31:31.468Z,11.05
2023-02-08T16:34:04.818Z,11.70
2023-02-08T16:36:35.735Z,10.45
2023-02-08T16:39:40.010Z,13.27
2023-02-08T16:42:20.751Z,9.32
2023-02-08T16:45:12.543Z,11.55
2023-02-08T16:47:45.943Z,11.48
2023-02-08T16:50:16.990Z,9.82
2023-02-08T16:52:43.597Z,10.93
2023-02-08T16:55:22.724Z,9.23
2023-02-08T16:57:52.677Z,12.10
2023-02-08T17:00:23.088Z,10.25
2023-02-08T17:02:50.649Z,10.98
2023-02-08T17:05:19.397Z,12.73
2023-02-08T17:07:46.288Z,12.20
2023-02-08T17:10:31.621Z,13.13
2023-02-08T17:13:21.558Z,12.68
2023-02-08T17:15:47.901Z,14.50
2023-02-08T17:18:14.625Z,9.27
2023-02-08T17:20:41.247Z,9.82
2023-02-08T17:23:07.851Z,13.38
2023-02-08T17:25:35.142Z,12.75
2023-02-08T17:28:08.776Z,12.40
2023-02-08T17:30:38.599Z,13.18
2023-02-08T17:33:06.627Z,12.52
2023-02-08T17:35:34.120Z,15.43
2023-02-08T17:38:00.677Z,15.38
2023-02-08T17:40:32.710Z,13.90
2023-02-08T17:43:04.105Z,13.32
2023-02-08T17:45:31.486Z,12.35
2023-02-08T17:48:01.100Z,23.02
2023-02-08T17:50:27.996Z,13.57
2023-02-08T17:52:55.633Z,10.52
2023-02-08T17:55:22.666Z,14.95
2023-02-08T17:57:49.188Z,12.38
2023-02-08T18:00:19.245Z,14.68
2023-02-08T18:02:48.424Z,12.25
2023-02-08T18:05:17.490Z,11.73
2023-02-08T18:07:44.165Z,11.57
2023-02-08T18:10:12.629Z,10.10
2023-02-08T18:12:39.345Z,12.00
2023-02-08T18:15:08.005Z,10.45
2023-02-08T18:17:34.527Z,10.88
2023-02-08T18:20:01.040Z,12.95
2023-02-08T18:22:28.293Z,13.15
2023-02-08T18:24:55.246Z,9.88
2023-02-08T18:27:22.920Z,9.25
2023-02-08T18:29:49.507Z,12.15
2023-02-08T18:32:16.040Z,10.85
2023-02-08T18:34:43.108Z,9.93
2023-02-08T18:37:10.053Z,9.05
2023-02-08T18:39:36.674Z,9.35
2023-02-08T18:42:03.146Z,8.57
2023-02-08T18:44:29.887Z,9.38
2023-02-08T18:46:56.493Z,9.45
2023-02-08T18:49:23.735Z,8.90
2023-02-08T18:51:50.240Z,9.55
2023-02-08T18:54:17.850Z,8.20
2023-02-08T18:56:45.051Z,9.30
2023-02-08T18:59:12.783Z,10.75
2023-02-08T19:01:39.649Z,8.32
2023-02-08T19:04:06.208Z,7.07
2023-02-08T19:06:36.651Z,8.77
2023-02-08T19:09:07.347Z,7.30
2023-02-08T19:11:36.950Z,12.80
2023-02-08T19:14:10.319Z,7.43
2023-02-08T19:16:37.372Z,7.60
2023-02-08T19:19:05.912Z,9.20
2023-02-08T19:21:34.105Z,8.93
2023-02-08T19:24:02.135Z,6.82
2023-02-08T19:26:32.683Z,8.52
2023-02-08T19:29:03.254Z,8.35
2023-02-08T19:31:30.776Z,6.75
2023-02-08T19:33:59.582Z,6.78
2023-02-08T19:36:33.032Z,7.93
2023-02-08T19:39:01.339Z,8.60
2023-02-08T19:41:33.228Z,7.95
2023-02-08T19:44:00.846Z,8.25
2023-02-08T19:46:27.964Z,7.32
2023-02-08T19:48:57.024Z,9.55
2023-02-08T19:51:23.602Z,7.63
2023-02-08T19:53:50.082Z,8.02
2023-02-08T19:56:18.785Z,8.65
2023-02-08T19:58:47.972Z,10.02
2023-02-08T20:01:22.362Z,7.00
2023-02-08T20:03:50.425Z,8.55
2023-02-08T20:06:19.876Z,8.80
2023-02-08T20:08:47.361Z,7.20
2023-02-08T20:11:23.604Z,7.35
2023-02-08T20:13:50.775Z,8.40
2023-02-08T20:16:19.546Z,7.32
2023-02-08T20:18:46.604Z,8.55
2023-02-08T20:21:13.281Z,7.82
2023-02-08T20:23:40.470Z,9.02
2023-02-08T20:26:13.473Z,8.07
2023-02-08T20:31:10.270Z,9.50
2023-02-08T20:33:37.023Z,8.95
2023-02-08T20:36:12.942Z,8.57
2023-02-08T20:38:39.968Z,9.02
2023-02-08T20:41:10.083Z,8.05
2023-02-08T20:43:37.443Z,10.82
2023-02-08T20:46:15.906Z,9.25
2023-02-08T20:48:42.409Z,9.48
2023-02-08T20:51:15.404Z,8.40
2023-02-08T20:56:12.820Z,11.13
2023-02-08T20:58:39.813Z,7.13
2023-02-08T21:01:12.525Z,9.70
2023-02-08T21:03:39.078Z,7.57
2023-02-08T21:06:15.133Z,8.00
2023-02-08T21:08:42.860Z,8.98
2023-02-08T21:11:10.630Z,9.82
2023-02-08T21:13:38.065Z,10.30
2023-02-08T21:16:09.317Z,6.88
2023-02-08T21:18:36.618Z,8.70
2023-02-08T21:21:04.503Z,6.90
2023-02-08T21:23:31.843Z,7.85
2023-02-08T21:25:59.368Z,9.30
2023-02-08T21:28:26.067Z,10.75
2023-02-08T21:31:00.895Z,8.48
2023-02-08T21:33:28.224Z,8.43
2023-02-08T21:35:55.096Z,7.40
2023-02-08T21:38:21.820Z,7.72
2023-02-08T21:40:48.296Z,6.80
2023-02-08T21:43:14.943Z,9.95
2023-02-08T21:45:41.557Z,9.32
2023-02-08T21:48:08.067Z,7.78
2023-02-08T21:50:53.141Z,7.97
2023-02-08T21:53:37.972Z,9.63
2023-02-08T21:56:04.732Z,10.15
2023-02-08T21:58:31.215Z,8.70
2023-02-08T22:00:57.800Z,9.55
2023-02-08T22:03:24.336Z,6.88
2023-02-08T22:06:09.409Z,9.68
2023-02-08T22:08:36.605Z,7.63
2023-02-08T22:11:08.030Z,9.43
2023-02-08T22:13:35.442Z,13.02
2023-02-08T22:16:07.401Z,9.23
2023-02-08T22:18:33.891Z,11.03
2023-02-08T22:21:00.396Z,9.30
2023-02-08T22:23:26.901Z,8.93
2023-02-08T22:25:53.373Z,7.55
2023-02-08T22:28:19.918Z,8.88
2023-02-08T22:30:50.353Z,8.98
2023-02-08T22:33:17.003Z,11.25
2023-02-08T22:35:43.484Z,9.57
2023-02-08T22:38:09.981Z,7.68
2023-02-08T22:40:36.617Z,9.60
2023-02-08T22:43:03.171Z,9.93
2023-02-08T22:45:29.766Z,10.80
2023-02-08T22:47:56.180Z,12.15
2023-02-08T22:50:22.733Z,11.02
2023-02-08T22:52:49.212Z,11.02
2023-02-08T22:55:15.689Z,11.55
2023-02-08T22:57:43.458Z,10.80
2023-02-08T23:00:10.753Z,11.23
2023-02-08T23:02:37.301Z,9.75
2023-02-08T23:05:03.926Z,10.30
2023-02-08T23:07:30.492Z,12.15
2023-02-08T23:09:57.151Z,9.93
2023-02-08T23:12:23.615Z,10.10
2023-02-08T23:14:51.007Z,9.90
2023-02-08T23:17:17.512Z,11.63
2023-02-08T23:19:44.203Z,9.55
2023-02-08T23:22:10.808Z,8.52
2023-02-08T23:24:37.443Z,12.00
2023-02-08T23:27:04.017Z,10.63
2023-02-08T23:29:30.661Z,14.50
2023-02-08T23:31:57.192Z,11.32
2023-02-08T23:34:23.724Z,10.48
2023-02-08T23:36:50.259Z,7.93
2023-02-08T23:39:16.752Z,10.90
2023-02-08T23:41:43.249Z,10.40
2023-02-08T23:44:09.833Z,9.23
2023-02-08T23:46:36.331Z,10.23
2023-02-08T23:49:02.949Z,11.23
2023-02-08T23:51:29.439Z,9.27
2023-02-08T23:53:56.008Z,9.15
2023-02-08T23:56:27.697Z,12.18
2023-02-08T23:58:56.332Z,9.27
